createdAt,value
2018-06-19T00:01:30.344Z,85.51
2018-06-19T00:04:00.213Z,86.04
2018-06-19T00:06:29.907Z,86.24
2018-06-19T00:08:59.427Z,85.95
2018-06-19T00:11:29.514Z,85.72
2018-06-19T00:13:59.386Z,85.64
2018-06-19T00:16:29.278Z,85.15
2018-06-19T00:19:00.288Z,84.14
2018-06-19T00:21:36.486Z,83.92
2018-06-19T00:24:06.117Z,84.06
2018-06-19T00:26:35.899Z,84.20
2018-06-19T00:29:05.599Z,84.16
2018-06-19T00:31:35.359Z,83.88
2018-06-19T00:34:05.238Z,84.14
2018-06-19T00:36:35.161Z,83.77
2018-06-19T00:39:07.083Z,83.49
2018-06-19T00:41:36.817Z,83.85
2018-06-19T00:44:06.858Z,83.95
2018-06-19T00:46:38.362Z,83.50
2018-06-19T00:49:08.155Z,83.81
2018-06-19T00:51:37.836Z,82.99
2018-06-19T00:54:07.527Z,83.11
2018-06-19T00:56:50.292Z,83.40
2018-06-19T00:59:20.135Z,82.90
2018-06-19T01:01:50.162Z,82.89
2018-06-19T01:04:20.131Z,83.39
2018-06-19T01:06:50.099Z,83.30
2018-06-19T01:09:19.832Z,82.91
2018-06-19T01:11:49.775Z,82.74
2018-06-19T01:14:19.564Z,82.81
2018-06-19T01:16:49.294Z,82.95
2018-06-19T01:19:18.999Z,83.35
2018-06-19T01:21:48.878Z,83.88
2018-06-19T01:24:18.634Z,84.39
2018-06-19T01:26:48.162Z,83.92
2018-06-19T01:29:17.871Z,83.48
2018-06-19T01:31:47.645Z,83.18
2018-06-19T01:34:17.257Z,82.96
2018-06-19T01:36:47.064Z,82.60
2018-06-19T01:39:16.666Z,82.57
2018-06-19T01:41:46.395Z,83.01
2018-06-19T01:44:16.080Z,83.33
2018-06-19T01:46:45.826Z,83.05
2018-06-19T01:49:15.814Z,83.10
2018-06-19T01:51:45.441Z,82.75
2018-06-19T01:54:15.116Z,83.28
2018-06-19T01:56:44.986Z,83.16
2018-06-19T01:59:14.507Z,83.50
2018-06-19T02:01:43.996Z,83.54
2018-06-19T02:04:13.611Z,83.07
2018-06-19T02:06:43.355Z,83.38
2018-06-19T02:09:13.198Z,83.52
2018-06-19T02:11:42.893Z,83.40
2018-06-19T02:14:12.864Z,82.71
2018-06-19T02:16:42.798Z,82.93
2018-06-19T02:19:12.978Z,82.68
2018-06-19T02:21:42.774Z,82.79
2018-06-19T02:24:12.459Z,82.84
2018-06-19T02:26:42.541Z,82.98
2018-06-19T02:29:12.200Z,82.81
2018-06-19T02:31:41.956Z,83.44
2018-06-19T02:34:11.656Z,84.24
2018-06-19T02:36:41.258Z,83.77
2018-06-19T02:39:12.323Z,83.47
2018-06-19T02:41:42.097Z,82.64
2018-06-19T02:44:12.027Z,83.23
2018-06-19T02:46:41.804Z,82.79
2018-06-19T02:49:12.056Z,83.59
2018-06-19T02:51:41.911Z,84.17
2018-06-19T02:54:11.420Z,84.26
2018-06-19T02:56:41.408Z,84.61
2018-06-19T02:59:11.066Z,84.87
2018-06-19T03:01:40.715Z,84.79
2018-06-19T03:04:10.248Z,84.47
2018-06-19T03:06:39.839Z,84.87
2018-06-19T03:09:10.890Z,85.31
2018-06-19T03:11:40.622Z,85.41
2018-06-19T03:14:10.430Z,84.97
2018-06-19T03:16:40.208Z,85.11
2018-06-19T03:19:10.015Z,84.90
2018-06-19T03:21:39.711Z,84.55
2018-06-19T03:24:09.678Z,84.77
2018-06-19T03:26:39.599Z,84.08
2018-06-19T03:29:09.147Z,84.94
2018-06-19T03:31:38.912Z,84.81
2018-06-19T03:34:08.916Z,84.11
2018-06-19T03:36:38.538Z,84.38
2018-06-19T03:39:10.191Z,84.15
2018-06-19T03:41:40.133Z,84.20
2018-06-19T03:44:09.977Z,84.28
2018-06-19T03:46:39.835Z,84.29
2018-06-19T03:49:09.648Z,84.26
2018-06-19T03:51:39.455Z,84.42
2018-06-19T03:54:09.325Z,84.26
2018-06-19T03:56:39.257Z,83.77
2018-06-19T03:59:09.072Z,84.06
2018-06-19T04:01:38.827Z,84.13
2018-06-19T04:04:08.614Z,83.99
2018-06-19T04:06:38.172Z,84.09
2018-06-19T04:09:08.845Z,83.96
2018-06-19T04:11:38.474Z,84.34
2018-06-19T04:14:08.294Z,83.84
2018-06-19T04:16:38.039Z,83.85
2018-06-19T04:19:07.939Z,83.80
2018-06-19T04:21:37.599Z,83.26
2018-06-19T04:24:07.626Z,82.57
2018-06-19T04:26:37.206Z,82.92
2018-06-19T04:29:06.854Z,83.08
2018-06-19T04:31:36.751Z,83.00
2018-06-19T04:34:07.685Z,81.94
2018-06-19T04:36:37.467Z,81.39
2018-06-19T04:39:10.144Z,82.85
2018-06-19T04:41:39.819Z,82.03
2018-06-19T04:44:09.639Z,81.86
2018-06-19T04:46:39.542Z,80.33
2018-06-19T04:49:09.194Z,78.93
2018-06-19T04:51:39.358Z,79.80
2018-06-19T04:54:09.066Z,79.44
2018-06-19T04:56:38.972Z,78.21
2018-06-19T04:59:09.110Z,78.87
2018-06-19T05:01:38.950Z,78.80
2018-06-19T05:04:08.539Z,78.34
2018-06-19T05:06:38.106Z,77.10
2018-06-19T05:09:11.071Z,76.24
2018-06-19T05:11:40.795Z,78.57
2018-06-19T05:14:10.935Z,79.77
2018-06-19T05:16:41.303Z,77.09
2018-06-19T05:19:11.591Z,78.02
2018-06-19T05:21:41.538Z,78.42
2018-06-19T05:24:11.331Z,78.39
2018-06-19T05:26:41.292Z,78.68
2018-06-19T05:29:11.342Z,76.08
2018-06-19T05:31:41.186Z,77.28
2018-06-19T05:34:10.846Z,79.39
2018-06-19T05:36:41.077Z,79.59
2018-06-19T05:39:11.759Z,79.60
2018-06-19T05:41:41.790Z,79.38
2018-06-19T05:44:11.250Z,77.55
2018-06-19T05:46:40.968Z,78.05
2018-06-19T05:49:10.682Z,77.39
2018-06-19T05:51:40.667Z,75.27
2018-06-19T05:54:10.315Z,76.03
2018-06-19T05:56:40.222Z,75.82
2018-06-19T05:59:09.949Z,74.31
2018-06-19T06:01:39.483Z,72.83
2018-06-19T06:04:09.382Z,73.71
2018-06-19T06:06:39.316Z,71.01
2018-06-19T06:09:10.343Z,66.80
2018-06-19T06:11:39.889Z,68.26
2018-06-19T06:14:09.854Z,68.13
2018-06-19T06:16:39.933Z,67.23
2018-06-19T06:19:09.457Z,67.29
2018-06-19T06:21:39.090Z,65.31
2018-06-19T06:24:08.675Z,67.43
2018-06-19T06:26:38.546Z,66.07
2018-06-19T06:29:08.499Z,69.32
2018-06-19T06:31:38.516Z,66.75
2018-06-19T06:34:08.330Z,67.67
2018-06-19T06:36:38.196Z,65.84
2018-06-19T06:39:09.026Z,66.36
2018-06-19T06:41:39.217Z,63.71
2018-06-19T06:44:08.978Z,60.10
2018-06-19T06:46:38.727Z,62.67
2018-06-19T06:49:08.369Z,60.20
2018-06-19T06:51:37.951Z,61.09
2018-06-19T06:54:07.782Z,62.11
2018-06-19T06:56:37.905Z,63.32
2018-06-19T06:59:07.967Z,57.83
2018-06-19T07:01:37.640Z,57.45
2018-06-19T07:04:07.772Z,60.13
2018-06-19T07:06:37.514Z,61.33
2018-06-19T07:09:09.671Z,59.65
2018-06-19T07:11:39.465Z,55.06
2018-06-19T07:14:09.080Z,56.74
2018-06-19T07:16:38.788Z,56.19
2018-06-19T07:19:08.617Z,58.28
2018-06-19T07:21:38.115Z,58.04
2018-06-19T07:24:07.815Z,55.56
2018-06-19T07:26:37.463Z,60.71
2018-06-19T07:29:07.422Z,58.94
2018-06-19T07:31:37.456Z,53.87
2018-06-19T07:34:07.391Z,54.08
2018-06-19T07:36:37.437Z,57.08
2018-06-19T07:39:08.722Z,60.10
2018-06-19T07:41:38.543Z,59.47
2018-06-19T07:44:08.582Z,56.43
2018-06-19T07:46:38.606Z,58.87
2018-06-19T07:49:08.389Z,52.84
2018-06-19T07:51:38.069Z,52.95
2018-06-19T07:54:07.779Z,54.79
2018-06-19T07:56:37.315Z,54.00
2018-06-19T07:59:06.827Z,50.43
2018-06-19T08:01:36.707Z,49.63
2018-06-19T08:04:06.875Z,49.19
2018-06-19T08:06:36.689Z,52.26
2018-06-19T08:09:08.705Z,52.73
2018-06-19T08:11:38.574Z,52.84
2018-06-19T08:14:08.423Z,53.38
2018-06-19T08:16:38.258Z,51.88
2018-06-19T08:19:08.239Z,50.22
2018-06-19T08:21:38.068Z,50.36
2018-06-19T08:24:07.886Z,48.73
2018-06-19T08:26:37.759Z,48.44
2018-06-19T08:29:07.342Z,48.69
2018-06-19T08:31:36.983Z,47.48
2018-06-19T08:34:06.753Z,49.50
2018-06-19T08:36:36.435Z,49.36
2018-06-19T08:39:09.173Z,48.40
2018-06-19T08:41:39.139Z,47.17
2018-06-19T08:44:08.866Z,48.04
2018-06-19T08:46:40.134Z,47.99
2018-06-19T08:49:10.645Z,45.11
2018-06-19T08:51:40.399Z,45.52
2018-06-19T08:54:10.171Z,45.37
2018-06-19T08:56:40.006Z,46.48
2018-06-19T08:59:09.616Z,43.33
2018-06-19T09:01:39.675Z,43.24
2018-06-19T09:04:09.396Z,43.07
2018-06-19T09:06:39.199Z,42.34
2018-06-19T09:09:11.064Z,40.99
2018-06-19T09:11:41.237Z,39.80
2018-06-19T09:14:11.355Z,38.75
2018-06-19T09:16:40.934Z,40.61
2018-06-19T09:19:10.943Z,40.04
2018-06-19T09:21:40.854Z,40.62
2018-06-19T09:24:10.631Z,39.45
2018-06-19T09:26:40.603Z,39.35
2018-06-19T09:29:10.343Z,39.48
2018-06-19T09:31:40.349Z,36.71
2018-06-19T09:34:09.959Z,37.42
2018-06-19T09:36:39.479Z,37.94
2018-06-19T09:39:14.839Z,38.45
2018-06-19T09:41:46.088Z,36.29
2018-06-19T09:44:16.686Z,38.64
2018-06-19T09:49:20.426Z,36.29
2018-06-19T09:51:50.809Z,36.62
2018-06-19T09:54:20.881Z,37.76
2018-06-19T09:59:24.744Z,38.90
2018-06-19T10:01:54.543Z,39.71
2018-06-19T10:04:24.419Z,38.03
2018-06-19T10:12:03.869Z,36.67
2018-06-19T10:14:33.895Z,38.11
2018-06-19T10:17:03.849Z,38.05
2018-06-19T10:22:07.949Z,37.77
2018-06-19T10:27:15.657Z,36.40
2018-06-19T10:29:45.382Z,35.24
2018-06-19T10:34:52.316Z,34.88
2018-06-19T10:45:02.820Z,35.75
2018-06-19T10:47:32.429Z,33.69
2018-06-19T10:52:37.183Z,33.61
2018-06-19T10:55:07.201Z,32.78
2018-06-19T10:57:37.114Z,33.35
2018-06-19T11:00:07.103Z,34.40
2018-06-19T11:02:36.875Z,32.54
2018-06-19T11:05:07.048Z,31.84
2018-06-19T11:07:36.767Z,31.02
2018-06-19T11:10:06.345Z,31.12
2018-06-19T11:12:36.025Z,31.03
2018-06-19T11:15:05.770Z,29.86
2018-06-19T11:17:35.724Z,30.16
2018-06-19T11:22:39.642Z,29.16
2018-06-19T11:27:44.472Z,27.56
2018-06-19T11:30:14.524Z,27.44
2018-06-19T11:32:44.456Z,27.07
2018-06-19T11:35:14.407Z,27.69
2018-06-19T11:37:44.131Z,28.70
2018-06-19T11:40:14.041Z,28.90
2018-06-19T11:42:43.655Z,27.32
2018-06-19T11:45:13.306Z,27.64
2018-06-19T11:47:42.917Z,27.80
2018-06-19T11:50:12.790Z,27.38
2018-06-19T11:52:42.642Z,28.21
2018-06-19T11:55:12.484Z,28.12
2018-06-19T11:57:42.355Z,28.24
2018-06-19T12:07:56.554Z,29.40
2018-06-19T12:10:26.183Z,29.56
2018-06-19T12:12:56.130Z,28.26
2018-06-19T12:15:26.095Z,26.67
2018-06-19T12:17:55.725Z,27.14
2018-06-19T12:20:25.260Z,28.84
2018-06-19T12:22:55.244Z,29.66
2018-06-19T12:25:25.010Z,28.99
2018-06-19T12:27:55.433Z,27.93
2018-06-19T12:30:25.602Z,27.37
2018-06-19T12:32:55.556Z,27.39
2018-06-19T12:35:25.599Z,26.85
2018-06-19T12:37:55.643Z,26.78
2018-06-19T12:40:25.404Z,28.02
2018-06-19T12:42:55.189Z,26.84
2018-06-19T12:45:25.027Z,26.76
2018-06-19T12:47:55.072Z,26.41
2018-06-19T12:51:45.069Z,25.23
2018-06-19T12:55:21.851Z,25.12
2018-06-19T12:57:51.982Z,23.21
2018-06-19T13:00:21.831Z,22.52
2018-06-19T13:04:03.211Z,21.98
2018-06-19T13:06:36.002Z,22.41
2018-06-19T13:09:08.244Z,22.04
2018-06-19T13:11:38.203Z,22.01
2018-06-19T13:14:18.897Z,20.63
2018-06-19T13:16:59.431Z,20.20
2018-06-19T13:19:40.390Z,19.87
2018-06-19T13:22:10.334Z,20.29
2018-06-19T13:24:40.058Z,19.57
2018-06-19T13:27:09.801Z,18.72
2018-06-19T13:29:54.679Z,18.35
2018-06-19T13:32:24.851Z,18.44
2018-06-19T13:34:54.839Z,18.51
2018-06-19T13:37:24.713Z,18.54
2018-06-19T13:41:13.548Z,18.40
2018-06-19T13:44:54.416Z,18.92
2018-06-19T13:47:24.637Z,19.12
2018-06-19T13:49:54.286Z,19.32
2018-06-19T13:52:24.149Z,19.15
2018-06-19T13:54:54.565Z,17.99
2018-06-19T13:57:38.187Z,17.58
2018-06-19T14:00:14.765Z,18.69
2018-06-19T14:02:44.589Z,18.88
2018-06-19T14:05:15.472Z,18.63
2018-06-19T14:08:03.249Z,17.82
2018-06-19T14:10:43.987Z,18.34
2018-06-19T14:13:13.786Z,18.83
2018-06-19T14:15:49.275Z,18.84
2018-06-19T14:18:20.335Z,20.75
2018-06-19T14:20:50.054Z,20.82
2018-06-19T14:23:19.769Z,22.59
2018-06-19T14:25:49.277Z,25.71
2018-06-19T14:28:19.060Z,24.61
2018-06-19T14:30:49.087Z,24.43
2018-06-19T14:33:18.706Z,23.09
2018-06-19T14:35:48.413Z,23.05
2018-06-19T14:38:18.329Z,22.31
2018-06-19T14:40:48.175Z,21.79
2018-06-19T14:43:17.816Z,21.46
2018-06-19T14:45:47.651Z,21.37
2018-06-19T14:48:17.486Z,20.53
2018-06-19T14:50:47.057Z,20.05
2018-06-19T14:53:16.724Z,20.08
2018-06-19T14:55:46.372Z,19.65
2018-06-19T14:58:16.285Z,19.44
2018-06-19T15:00:46.027Z,18.46
2018-06-19T15:03:16.071Z,18.86
2018-06-19T15:05:45.922Z,18.29
2018-06-19T15:08:15.698Z,18.27
2018-06-19T15:10:45.356Z,18.89
2018-06-19T15:13:15.266Z,19.16
2018-06-19T15:15:45.219Z,19.23
2018-06-19T15:18:15.187Z,19.99
2018-06-19T15:20:45.072Z,21.62
2018-06-19T15:23:14.627Z,21.35
2018-06-19T15:25:44.189Z,21.38
2018-06-19T15:28:13.743Z,21.17
2018-06-19T15:30:43.481Z,20.77
2018-06-19T15:33:13.419Z,21.22
2018-06-19T15:35:43.263Z,21.70
2018-06-19T15:38:13.153Z,21.93
2018-06-19T15:40:43.289Z,22.57
2018-06-19T15:43:13.184Z,22.17
2018-06-19T15:45:43.315Z,22.06
2018-06-19T15:48:12.875Z,23.25
2018-06-19T15:50:42.466Z,23.41
2018-06-19T15:53:12.185Z,24.26
2018-06-19T15:55:41.962Z,25.54
2018-06-19T15:58:11.775Z,25.53
2018-06-19T16:00:41.674Z,27.22
2018-06-19T16:03:11.437Z,28.00
2018-06-19T16:05:41.296Z,28.71
2018-06-19T16:08:20.394Z,28.79
2018-06-19T16:10:50.537Z,29.96
2018-06-19T16:13:20.344Z,30.36
2018-06-19T16:15:50.345Z,30.76
2018-06-19T16:18:20.402Z,31.33
2018-06-19T16:20:50.196Z,31.89
2018-06-19T16:23:19.871Z,32.69
2018-06-19T16:25:49.642Z,33.08
2018-06-19T16:28:19.427Z,33.16
2018-06-19T16:30:49.509Z,33.46
2018-06-19T16:33:19.131Z,34.15
2018-06-19T16:35:49.105Z,33.52
2018-06-19T16:38:18.967Z,32.78
2018-06-19T16:40:48.721Z,30.68
2018-06-19T16:43:18.712Z,30.99
2018-06-19T16:45:48.446Z,31.53
2018-06-19T16:48:18.224Z,32.18
2018-06-19T16:50:48.161Z,33.11
2018-06-19T16:53:17.926Z,32.85
2018-06-19T16:55:47.905Z,33.38
2018-06-19T16:58:17.681Z,32.89
2018-06-19T17:00:47.429Z,32.83
2018-06-19T17:03:17.168Z,32.99
2018-06-19T17:05:47.094Z,32.30
2018-06-19T17:08:16.792Z,32.32
2018-06-19T17:10:46.623Z,32.11
2018-06-19T17:13:16.604Z,32.68
2018-06-19T17:15:46.133Z,31.77
2018-06-19T17:18:16.118Z,31.81
2018-06-19T17:20:45.668Z,31.52
2018-06-19T17:23:15.233Z,31.85
2018-06-19T17:25:45.132Z,32.10
2018-06-19T17:28:14.861Z,30.88
2018-06-19T17:30:44.784Z,32.54
2018-06-19T17:33:14.734Z,31.95
2018-06-19T17:35:44.672Z,31.81
2018-06-19T17:38:14.552Z,32.96
2018-06-19T17:40:44.540Z,31.83
2018-06-19T17:43:14.672Z,32.52
2018-06-19T17:45:44.461Z,32.64
2018-06-19T17:48:13.928Z,33.74
2018-06-19T17:50:44.107Z,34.46
2018-06-19T17:53:13.680Z,34.32
2018-06-19T17:55:43.675Z,35.79
2018-06-19T17:58:13.500Z,36.92
2018-06-19T18:00:43.343Z,36.71
2018-06-19T18:03:13.077Z,37.60
2018-06-19T18:05:42.927Z,37.85
2018-06-19T18:08:12.849Z,38.45
2018-06-19T18:10:42.696Z,37.67
2018-06-19T18:13:12.295Z,38.07
2018-06-19T18:15:42.285Z,39.29
2018-06-19T18:18:11.903Z,39.39
2018-06-19T18:20:41.605Z,41.11
2018-06-19T18:23:11.191Z,41.51
2018-06-19T18:25:41.091Z,42.13
2018-06-19T18:28:10.739Z,41.81
2018-06-19T18:30:40.517Z,45.80
2018-06-19T18:33:10.587Z,44.88
2018-06-19T18:35:40.587Z,46.16
2018-06-19T18:38:10.118Z,47.53
2018-06-19T18:40:39.906Z,49.41
2018-06-19T18:43:10.168Z,49.83
2018-06-19T18:45:40.031Z,49.78
2018-06-19T18:48:09.688Z,49.97
2018-06-19T18:50:39.154Z,51.05
2018-06-19T18:53:08.664Z,52.47
2018-06-19T18:55:38.467Z,52.39
2018-06-19T18:58:08.395Z,53.03
2018-06-19T19:00:38.136Z,55.03
2018-06-19T19:03:07.846Z,54.71
2018-06-19T19:05:37.363Z,55.48
2018-06-19T19:08:07.190Z,55.44
2018-06-19T19:10:42.212Z,56.31
2018-06-19T19:13:11.955Z,56.27
2018-06-19T19:15:47.174Z,56.83
2018-06-19T19:18:21.907Z,57.37
2018-06-19T19:20:51.666Z,57.09
2018-06-19T19:23:21.271Z,58.51
2018-06-19T19:25:51.198Z,58.60
2018-06-19T19:28:26.133Z,59.28
2018-06-19T19:30:56.158Z,59.56
2018-06-19T19:33:26.017Z,59.74
2018-06-19T19:35:55.985Z,59.59
2018-06-19T19:38:30.866Z,60.02
2018-06-19T19:41:00.582Z,60.34
2018-06-19T19:43:30.867Z,60.60
2018-06-19T19:46:00.678Z,60.64
2018-06-19T19:48:35.357Z,61.38
2018-06-19T19:51:05.008Z,61.81
2018-06-19T19:53:34.902Z,61.74
2018-06-19T19:56:10.107Z,62.81
2018-06-19T19:58:44.853Z,62.22
2018-06-19T20:01:14.648Z,62.36
2018-06-19T20:03:44.500Z,62.13
2018-06-19T20:06:14.236Z,62.44
2018-06-19T20:08:44.022Z,62.87
2018-06-19T20:11:14.284Z,63.21
2018-06-19T20:13:44.194Z,63.59
2018-06-19T20:16:13.778Z,63.91
2018-06-19T20:18:43.391Z,64.06
2018-06-19T20:21:13.084Z,64.51
2018-06-19T20:23:42.695Z,64.52
2018-06-19T20:26:12.327Z,64.69
2018-06-19T20:28:42.471Z,64.46
2018-06-19T20:31:12.019Z,64.34
2018-06-19T20:33:41.983Z,64.82
2018-06-19T20:36:11.660Z,64.75
2018-06-19T20:38:41.499Z,65.08
2018-06-19T20:41:11.154Z,64.74
2018-06-19T20:43:40.807Z,65.17
2018-06-19T20:46:10.511Z,64.67
2018-06-19T20:48:40.440Z,64.61
2018-06-19T20:51:10.013Z,65.10
2018-06-19T20:53:39.618Z,64.69
2018-06-19T20:56:09.446Z,64.53
2018-06-19T20:58:39.344Z,64.64
2018-06-19T21:01:09.259Z,64.94
2018-06-19T21:03:39.295Z,65.36
2018-06-19T21:06:09.375Z,65.12
2018-06-19T21:08:41.986Z,64.58
2018-06-19T21:11:13.220Z,64.28
2018-06-19T21:13:43.244Z,64.83
2018-06-19T21:16:13.230Z,63.97
2018-06-19T21:18:42.814Z,64.64
2018-06-19T21:21:12.359Z,64.17
2018-06-19T21:23:41.911Z,64.93
2018-06-19T21:26:11.695Z,65.16
2018-06-19T21:28:41.529Z,65.02
2018-06-19T21:31:11.226Z,64.60
2018-06-19T21:33:41.254Z,64.52
2018-06-19T21:36:11.165Z,64.70
2018-06-19T21:38:40.768Z,64.67
2018-06-19T21:41:10.492Z,64.41
2018-06-19T21:43:40.514Z,64.31
2018-06-19T21:46:10.562Z,64.11
2018-06-19T21:48:40.136Z,64.19
2018-06-19T21:51:09.860Z,64.41
2018-06-19T21:53:39.541Z,64.73
2018-06-19T21:56:09.307Z,64.62
2018-06-19T21:58:38.952Z,64.75
2018-06-19T22:01:09.024Z,65.21
2018-06-19T22:03:39.085Z,65.51
2018-06-19T22:06:08.920Z,66.09
2018-06-19T22:08:44.517Z,66.01
2018-06-19T22:11:15.042Z,65.64
2018-06-19T22:13:45.306Z,66.46
2018-06-19T22:16:15.457Z,66.99
2018-06-19T22:18:45.099Z,66.75
2018-06-19T22:21:14.589Z,66.58
2018-06-19T22:23:44.087Z,66.65
2018-06-19T22:26:13.852Z,66.44
2018-06-19T22:28:43.670Z,67.34
2018-06-19T22:31:13.577Z,67.30
2018-06-19T22:33:43.456Z,66.75
2018-06-19T22:36:13.465Z,67.30
2018-06-19T22:38:43.251Z,67.04
2018-06-19T22:41:13.318Z,67.67
2018-06-19T22:43:43.047Z,67.28
2018-06-19T22:46:12.575Z,67.28
2018-06-19T22:48:42.277Z,67.00
2018-06-19T22:51:11.822Z,67.21
2018-06-19T22:53:41.424Z,66.95
2018-06-19T22:56:11.126Z,67.27
2018-06-19T22:58:40.887Z,66.64
2018-06-19T23:01:10.798Z,65.40
2018-06-19T23:03:40.804Z,66.26
2018-06-19T23:06:10.731Z,66.69
2018-06-19T23:08:40.510Z,67.05
2018-06-19T23:11:10.557Z,66.67
2018-06-19T23:13:40.578Z,66.93
2018-06-19T23:16:10.516Z,67.17
2018-06-19T23:18:40.380Z,66.70
2018-06-19T23:21:09.922Z,66.47
2018-06-19T23:23:39.629Z,66.84
2018-06-19T23:26:09.516Z,66.89
2018-06-19T23:28:39.208Z,66.98
2018-06-19T23:31:09.268Z,67.27
2018-06-19T23:33:38.946Z,67.69
2018-06-19T23:36:08.900Z,67.69
2018-06-19T23:38:38.771Z,68.23
2018-06-19T23:41:08.743Z,67.98
2018-06-19T23:43:38.725Z,67.94
2018-06-19T23:46:08.577Z,68.31
2018-06-19T23:48:38.159Z,67.91
2018-06-19T23:51:07.799Z,68.10
2018-06-19T23:53:37.521Z,68.81
2018-06-19T23:56:07.457Z,68.37
2018-06-19T23:58:37.423Z,68.80
